sensor_id;sensor_type;location;lat;lon;timestamp;pressure;altitude;pressure_sealevel;temperature;humidity
16030;BME280;34770;49.272;11.070;2023-02-28T00:00:22;98558.06;;;-4.27;100.00
16030;BME280;34770;49.272;11.070;2023-02-28T00:02:48;98565.16;;;-4.26;100.00
16030;BME280;34770;49.272;11.070;2023-02-28T00:05:16;98565.03;;;-4.19;100.00
16030;BME280;34770;49.272;11.070;2023-02-28T00:07:43;98565.13;;;-4.14;100.00
16030;BME280;34770;49.272;11.070;2023-02-28T00:10:11;98542.09;;;-4.23;100.00
16030;BME280;34770;49.272;11.070;2023-02-28T00:12:37;98559.44;;;-4.12;100.00
16030;BME280;34770;49.272;11.070;2023-02-28T00:15:07;98564.06;;;-4.13;100.00
16030;BME280;34770;49.272;11.070;2023-02-28T00:17:33;98556.97;;;-4.14;100.00
16030;BME280;34770;49.272;11.070;2023-02-28T00:19:59;98549.78;;;-4.20;100.00
16030;BME280;34770;49.272;11.070;2023-02-28T00:22:38;98561.44;;;-4.08;100.00
16030;BME280;34770;49.272;11.070;2023-02-28T00:25:05;98552.22;;;-4.07;100.00
16030;BME280;34770;49.272;11.070;2023-02-28T00:27:32;98564.66;;;-4.11;100.00
16030;BME280;34770;49.272;11.070;2023-02-28T00:29:58;98552.75;;;-4.22;100.00
16030;BME280;34770;49.272;11.070;2023-02-28T00:32:24;98552.47;;;-4.08;100.00
16030;BME280;34770;49.272;11.070;2023-02-28T00:34:49;98551.63;;;-4.09;100.00
16030;BME280;34770;49.272;11.070;2023-02-28T00:37:15;98541.38;;;-4.19;100.00
16030;BME280;34770;49.272;11.070;2023-02-28T00:39:40;98552.59;;;-4.15;100.00
16030;BME280;34770;49.272;11.070;2023-02-28T00:42:07;98537.94;;;-4.14;100.00
16030;BME280;34770;49.272;11.070;2023-02-28T00:44:33;98546.56;;;-4.17;100.00
16030;BME280;34770;49.272;11.070;2023-02-28T00:46:59;98554.00;;;-4.12;100.00
16030;BME280;34770;49.272;11.070;2023-02-28T00:49:26;98554.50;;;-4.15;100.00
16030;BME280;34770;49.272;11.070;2023-02-28T00:51:53;98554.38;;;-4.21;100.00
16030;BME280;34770;49.272;11.070;2023-02-28T00:54:19;98553.47;;;-4.26;100.00
16030;BME280;34770;49.272;11.070;2023-02-28T00:56:44;98552.75;;;-4.22;100.00
16030;BME280;34770;49.272;11.070;2023-02-28T00:59:11;98552.25;;;-4.19;100.00
16030;BME280;34770;49.272;11.070;2023-02-28T01:01:37;98551.78;;;-4.15;100.00
16030;BME280;34770;49.272;11.070;2023-02-28T01:04:03;98550.16;;;-4.28;100.00
16030;BME280;34770;49.272;11.070;2023-02-28T01:06:30;98550.50;;;-4.25;100.00
16030;BME280;34770;49.272;11.070;2023-02-28T01:08:55;98539.88;;;-4.26;100.00
16030;BME280;34770;49.272;11.070;2023-02-28T01:11:21;98542.84;;;-4.28;100.00
16030;BME280;34770;49.272;11.070;2023-02-28T01:13:46;98551.56;;;-4.26;100.00
16030;BME280;34770;49.272;11.070;2023-02-28T01:16:13;98538.84;;;-4.49;100.00
16030;BME280;34770;49.272;11.070;2023-02-28T01:18:39;98531.28;;;-4.47;100.00
16030;BME280;34770;49.272;11.070;2023-02-28T01:21:10;98540.50;;;-4.48;100.00
16030;BME280;34770;49.272;11.070;2023-02-28T01:23:37;98540.34;;;-4.41;100.00
16030;BME280;34770;49.272;11.070;2023-02-28T01:26:07;98535.75;;;-4.41;100.00
16030;BME280;34770;49.272;11.070;2023-02-28T01:28:33;98536.72;;;-4.47;100.00
16030;BME280;34770;49.272;11.070;2023-02-28T01:30:59;98507.81;;;-4.65;100.00
16030;BME280;34770;49.272;11.070;2023-02-28T01:33:25;98538.84;;;-4.49;100.00
16030;BME280;34770;49.272;11.070;2023-02-28T01:36:00;98537.69;;;-4.53;100.00
16030;BME280;34770;49.272;11.070;2023-02-28T01:38:27;98530.34;;;-4.53;100.00
16030;BME280;34770;49.272;11.070;2023-02-28T01:40:52;98530.59;;;-4.54;100.00
16030;BME280;34770;49.272;11.070;2023-02-28T01:43:27;98529.19;;;-4.57;100.00
16030;BME280;34770;49.272;11.070;2023-02-28T01:45:54;98534.97;;;-4.65;100.00
16030;BME280;34770;49.272;11.070;2023-02-28T01:48:27;98504.63;;;-4.86;100.00
16030;BME280;34770;49.272;11.070;2023-02-28T01:50:54;98521.38;;;-4.77;100.00
16030;BME280;34770;49.272;11.070;2023-02-28T01:53:36;98534.03;;;-4.71;100.00
16030;BME280;34770;49.272;11.070;2023-02-28T01:56:05;98525.41;;;-4.91;100.00
16030;BME280;34770;49.272;11.070;2023-02-28T01:58:32;98527.31;;;-4.80;100.00
16030;BME280;34770;49.272;11.070;2023-02-28T02:00:58;98515.16;;;-4.89;100.00
16030;BME280;34770;49.272;11.070;2023-02-28T02:03:24;98518.06;;;-4.79;100.00
16030;BME280;34770;49.272;11.070;2023-02-28T02:05:49;98524.59;;;-4.80;100.00
16030;BME280;34770;49.272;11.070;2023-02-28T02:08:19;98496.94;;;-5.01;100.00
16030;BME280;34770;49.272;11.070;2023-02-28T02:10:49;98512.78;;;-4.98;100.00
16030;BME280;34770;49.272;11.070;2023-02-28T02:13:22;98517.16;;;-4.97;100.00
16030;BME280;34770;49.272;11.070;2023-02-28T02:16:10;98524.44;;;-4.97;100.00
16030;BME280;34770;49.272;11.070;2023-02-28T02:18:53;98519.88;;;-4.97;100.00
16030;BME280;34770;49.272;11.070;2023-02-28T02:36:04;98513.47;;;-5.02;100.00
16030;BME280;34770;49.272;11.070;2023-02-28T02:38:49;98503.47;;;-5.14;100.00
16030;BME280;34770;49.272;11.070;2023-02-28T02:41:36;98511.25;;;-5.17;100.00
16030;BME280;34770;49.272;11.070;2023-02-28T02:46:45;98508.16;;;-5.21;100.00
16030;BME280;34770;49.272;11.070;2023-02-28T02:49:20;98495.66;;;-5.22;100.00
16030;BME280;34770;49.272;11.070;2023-02-28T02:51:47;98507.94;;;-5.19;100.00
16030;BME280;34770;49.272;11.070;2023-02-28T02:54:17;98503.00;;;-5.22;100.00
16030;BME280;34770;49.272;11.070;2023-02-28T02:56:48;98487.38;;;-5.39;100.00
16030;BME280;34770;49.272;11.070;2023-02-28T02:59:19;98507.81;;;-5.24;100.00
16030;BME280;34770;49.272;11.070;2023-02-28T03:01:49;98506.66;;;-5.29;100.00
16030;BME280;34770;49.272;11.070;2023-02-28T03:04:19;98510.53;;;-5.24;100.00
16030;BME280;34770;49.272;11.070;2023-02-28T03:06:45;98507.13;;;-5.20;100.00
16030;BME280;34770;49.272;11.070;2023-02-28T03:09:10;98469.44;;;-5.40;100.00
16030;BME280;34770;49.272;11.070;2023-02-28T03:11:37;98514.06;;;-5.24;100.00
16030;BME280;34770;49.272;11.070;2023-02-28T03:16:55;98504.13;;;-5.30;100.00
16030;BME280;34770;49.272;11.070;2023-02-28T03:25:21;98519.94;;;-5.39;100.00
16030;BME280;34770;49.272;11.070;2023-02-28T03:30:51;98510.41;;;-5.30;100.00
16030;BME280;34770;49.272;11.070;2023-02-28T03:35:51;98511.69;;;-5.44;100.00
16030;BME280;34770;49.272;11.070;2023-02-28T03:38:24;98494.69;;;-5.51;100.00
16030;BME280;34770;49.272;11.070;2023-02-28T03:40:57;98512.75;;;-5.45;100.00
16030;BME280;34770;49.272;11.070;2023-02-28T03:43:29;98517.22;;;-5.39;100.00
16030;BME280;34770;49.272;11.070;2023-02-28T03:45:58;98487.00;;;-5.54;100.00
16030;BME280;34770;49.272;11.070;2023-02-28T03:48:31;98501.88;;;-5.45;100.00
16030;BME280;34770;49.272;11.070;2023-02-28T03:50:59;98500.84;;;-5.44;100.00
16030;BME280;34770;49.272;11.070;2023-02-28T03:53:39;98525.50;;;-5.34;100.00
16030;BME280;34770;49.272;11.070;2023-02-28T03:56:14;98514.44;;;-5.32;100.00
16030;BME280;34770;49.272;11.070;2023-02-28T03:58:57;98514.63;;;-5.34;100.00
16030;BME280;34770;49.272;11.070;2023-02-28T04:01:35;98515.69;;;-5.35;100.00
16030;BME280;34770;49.272;11.070;2023-02-28T04:04:01;98510.50;;;-5.36;100.00
16030;BME280;34770;49.272;11.070;2023-02-28T04:06:31;98513.72;;;-5.39;100.00
16030;BME280;34770;49.272;11.070;2023-02-28T04:08:57;98508.50;;;-5.41;100.00
16030;BME280;34770;49.272;11.070;2023-02-28T04:13:53;98529.75;;;-5.38;100.00
16030;BME280;34770;49.272;11.070;2023-02-28T04:16:19;98507.69;;;-5.41;100.00
16030;BME280;34770;49.272;11.070;2023-02-28T04:18:44;98501.66;;;-5.43;100.00
16030;BME280;34770;49.272;11.070;2023-02-28T04:21:11;98520.66;;;-5.32;100.00
16030;BME280;34770;49.272;11.070;2023-02-28T04:23:36;98507.78;;;-5.36;100.00
16030;BME280;34770;49.272;11.070;2023-02-28T04:26:02;98519.13;;;-5.28;100.00
16030;BME280;34770;49.272;11.070;2023-02-28T04:28:29;98515.34;;;-5.26;100.00
16030;BME280;34770;49.272;11.070;2023-02-28T04:30:56;98524.22;;;-5.19;100.00
16030;BME280;34770;49.272;11.070;2023-02-28T04:33:21;98503.31;;;-5.31;100.00
16030;BME280;34770;49.272;11.070;2023-02-28T04:35:47;98530.25;;;-5.17;100.00
16030;BME280;34770;49.272;11.070;2023-02-28T04:38:12;98508.50;;;-5.29;100.00
16030;BME280;34770;49.272;11.070;2023-02-28T04:40:38;98519.47;;;-5.24;100.00
16030;BME280;34770;49.272;11.070;2023-02-28T04:43:03;98522.00;;;-5.22;100.00
16030;BME280;34770;49.272;11.070;2023-02-28T04:45:29;98509.81;;;-5.32;100.00
16030;BME280;34770;49.272;11.070;2023-02-28T04:47:57;98532.97;;;-5.17;100.00
16030;BME280;34770;49.272;11.070;2023-02-28T04:50:23;98514.31;;;-5.25;100.00
16030;BME280;34770;49.272;11.070;2023-02-28T04:52:49;98517.47;;;-5.17;100.00
16030;BME280;34770;49.272;11.070;2023-02-28T04:55:14;98516.78;;;-5.24;100.00
16030;BME280;34770;49.272;11.070;2023-02-28T04:57:40;98519.28;;;-5.22;100.00
16030;BME280;34770;49.272;11.070;2023-02-28T05:00:09;98525.88;;;-5.18;100.00
16030;BME280;34770;49.272;11.070;2023-02-28T05:02:37;98499.19;;;-5.33;100.00
16030;BME280;34770;49.272;11.070;2023-02-28T05:05:03;98515.47;;;-5.21;100.00
16030;BME280;34770;49.272;11.070;2023-02-28T05:07:29;98523.16;;;-5.18;100.00
16030;BME280;34770;49.272;11.070;2023-02-28T05:09:55;98525.50;;;-5.22;100.00
16030;BME280;34770;49.272;11.070;2023-02-28T05:12:20;98533.41;;;-5.20;100.00
16030;BME280;34770;49.272;11.070;2023-02-28T05:14:46;98533.06;;;-5.24;100.00
16030;BME280;34770;49.272;11.070;2023-02-28T05:17:11;98533.41;;;-5.20;100.00
16030;BME280;34770;49.272;11.070;2023-02-28T05:19:36;98541.34;;;-5.19;100.00
16030;BME280;34770;49.272;11.070;2023-02-28T05:22:02;98540.25;;;-5.30;100.00
16030;BME280;34770;49.272;11.070;2023-02-28T05:24:27;98526.78;;;-5.36;100.00
16030;BME280;34770;49.272;11.070;2023-02-28T05:26:54;98544.84;;;-5.30;100.00
16030;BME280;34770;49.272;11.070;2023-02-28T05:29:19;98546.88;;;-5.25;100.00
16030;BME280;34770;49.272;11.070;2023-02-28T05:31:45;98537.75;;;-5.31;100.00
16030;BME280;34770;49.272;11.070;2023-02-28T05:34:10;98525.50;;;-5.34;100.00
16030;BME280;34770;49.272;11.070;2023-02-28T05:36:38;98546.88;;;-5.25;100.00
16030;BME280;34770;49.272;11.070;2023-02-28T05:39:06;98522.91;;;-5.40;100.00
16030;BME280;34770;49.272;11.070;2023-02-28T05:41:32;98546.16;;;-5.33;100.00
16030;BME280;34770;49.272;11.070;2023-02-28T05:43:58;98524.56;;;-5.39;100.00
16030;BME280;34770;49.272;11.070;2023-02-28T05:46:24;98548.13;;;-5.40;100.00
16030;BME280;34770;49.272;11.070;2023-02-28T05:48:50;98533.41;;;-5.44;100.00
16030;BME280;34770;49.272;11.070;2023-02-28T05:51:16;98532.19;;;-5.48;100.00
16030;BME280;34770;49.272;11.070;2023-02-28T05:53:42;98534.31;;;-5.50;100.00
16030;BME280;34770;49.272;11.070;2023-02-28T05:56:07;98533.41;;;-5.44;100.00
16030;BME280;34770;49.272;11.070;2023-02-28T05:58:33;98544.38;;;-5.39;100.00
16030;BME280;34770;49.272;11.070;2023-02-28T06:01:01;98552.16;;;-5.42;100.00
16030;BME280;34770;49.272;11.070;2023-02-28T06:03:43;98529.13;;;-5.52;100.00
16030;BME280;34770;49.272;11.070;2023-02-28T06:06:09;98537.16;;;-5.45;100.00
16030;BME280;34770;49.272;11.070;2023-02-28T06:08:34;98552.50;;;-5.39;100.00
16030;BME280;34770;49.272;11.070;2023-02-28T06:11:03;98548.13;;;-5.40;100.00
16030;BME280;34770;49.272;11.070;2023-02-28T06:13:28;98553.56;;;-5.40;100.00
16030;BME280;34770;49.272;11.070;2023-02-28T06:15:54;98549.56;;;-5.37;100.00
16030;BME280;34770;49.272;11.070;2023-02-28T06:18:19;98556.31;;;-5.28;100.00
16030;BME280;34770;49.272;11.070;2023-02-28T06:20:52;98542.13;;;-5.30;100.00
16030;BME280;34770;49.272;11.070;2023-02-28T06:23:19;98557.41;;;-5.17;100.00
16030;BME280;34770;49.272;11.070;2023-02-28T06:25:46;98564.84;;;-5.13;100.00
16030;BME280;34770;49.272;11.070;2023-02-28T06:28:11;98543.34;;;-5.14;100.00
16030;BME280;34770;49.272;11.070;2023-02-28T06:30:37;98558.56;;;-5.13;100.00
16030;BME280;34770;49.272;11.070;2023-02-28T06:33:03;98551.63;;;-5.09;100.00
16030;BME280;34770;49.272;11.070;2023-02-28T06:35:28;98547.03;;;-4.97;100.00
16030;BME280;34770;49.272;11.070;2023-02-28T06:37:54;98557.41;;;-4.82;100.00
16030;BME280;34770;49.272;11.070;2023-02-28T06:40:20;98562.59;;;-4.68;100.00
16030;BME280;34770;49.272;11.070;2023-02-28T06:42:46;98562.72;;;-4.63;100.00
16030;BME280;34770;49.272;11.070;2023-02-28T06:45:12;98578.53;;;-4.48;100.00
16030;BME280;34770;49.272;11.070;2023-02-28T06:47:39;98566.84;;;-4.49;100.00
16030;BME280;34770;49.272;11.070;2023-02-28T06:50:05;98556.19;;;-4.38;100.00
16030;BME280;34770;49.272;11.070;2023-02-28T06:52:31;98574.00;;;-4.19;100.00
16030;BME280;34770;49.272;11.070;2023-02-28T06:54:57;98562.88;;;-4.17;100.00
16030;BME280;34770;49.272;11.070;2023-02-28T06:57:32;98575.69;;;-3.89;100.00
16030;BME280;34770;49.272;11.070;2023-02-28T06:59:59;98568.81;;;-3.79;100.00
16030;BME280;34770;49.272;11.070;2023-02-28T07:02:26;98576.78;;;-3.61;100.00
16030;BME280;34770;49.272;11.070;2023-02-28T07:04:52;98562.44;;;-3.56;100.00
16030;BME280;34770;49.272;11.070;2023-02-28T07:07:17;98568.09;;;-3.29;100.00
16030;BME280;34770;49.272;11.070;2023-02-28T07:09:43;98566.03;;;-3.22;100.00
16030;BME280;34770;49.272;11.070;2023-02-28T07:12:08;98571.06;;;-3.13;100.00
16030;BME280;34770;49.272;11.070;2023-02-28T07:14:36;98564.72;;;-3.02;100.00
16030;BME280;34770;49.272;11.070;2023-02-28T07:17:02;98559.38;;;-2.97;98.30
16030;BME280;34770;49.272;11.070;2023-02-28T07:19:27;98568.53;;;-2.69;98.06
16030;BME280;34770;49.272;11.070;2023-02-28T07:21:53;98580.72;;;-2.54;95.70
16030;BME280;34770;49.272;11.070;2023-02-28T07:24:18;98580.59;;;-2.43;93.43
16030;BME280;34770;49.272;11.070;2023-02-28T07:26:44;98584.63;;;-2.28;93.51
16030;BME280;34770;49.272;11.070;2023-02-28T07:29:09;98575.19;;;-1.98;90.49
16030;BME280;34770;49.272;11.070;2023-02-28T07:31:35;98571.50;;;-1.87;89.10
16030;BME280;34770;49.272;11.070;2023-02-28T07:34:00;98581.94;;;-1.56;86.96
16030;BME280;34770;49.272;11.070;2023-02-28T07:36:27;98579.38;;;-1.41;85.44
16030;BME280;34770;49.272;11.070;2023-02-28T07:38:53;98562.78;;;-1.34;83.97
16030;BME280;34770;49.272;11.070;2023-02-28T07:41:20;98571.63;;;-0.94;82.71
16030;BME280;34770;49.272;11.070;2023-02-28T07:43:46;98561.50;;;-0.94;81.22
16030;BME280;34770;49.272;11.070;2023-02-28T07:46:14;98583.31;;;-0.67;81.38
16030;BME280;34770;49.272;11.070;2023-02-28T07:48:40;98543.88;;;-0.76;79.50
16030;BME280;34770;49.272;11.070;2023-02-28T07:51:06;98597.00;;;-0.24;78.25
16030;BME280;34770;49.272;11.070;2023-02-28T07:53:31;98582.63;;;-0.46;75.45
16030;BME280;34770;49.272;11.070;2023-02-28T07:55:59;98576.28;;;-0.52;76.31
16030;BME280;34770;49.272;11.070;2023-02-28T07:58:26;98596.19;;;-0.62;75.75
16030;BME280;34770;49.272;11.070;2023-02-28T08:00:52;98593.94;;;-0.33;76.88
16030;BME280;34770;49.272;11.070;2023-02-28T08:03:19;98587.72;;;-0.18;75.01
16030;BME280;34770;49.272;11.070;2023-02-28T08:05:47;98579.91;;;-0.41;73.59
16030;BME280;34770;49.272;11.070;2023-02-28T08:08:13;98562.66;;;-0.47;74.56
16030;BME280;34770;49.272;11.070;2023-02-28T08:10:39;98591.69;;;-0.41;73.66
16030;BME280;34770;49.272;11.070;2023-02-28T08:13:04;98595.06;;;-0.28;72.87
16030;BME280;34770;49.272;11.070;2023-02-28T08:15:29;98590.75;;;-0.14;71.80
16030;BME280;34770;49.272;11.070;2023-02-28T08:17:55;98593.41;;;-0.29;72.34
16030;BME280;34770;49.272;11.070;2023-02-28T08:20:22;98589.34;;;-0.22;71.23
16030;BME280;34770;49.272;11.070;2023-02-28T08:22:47;98590.41;;;-0.28;70.58
16030;BME280;34770;49.272;11.070;2023-02-28T08:25:13;98596.28;;;-0.04;71.31
16030;BME280;34770;49.272;11.070;2023-02-28T08:27:39;98592.31;;;0.30;71.15
16030;BME280;34770;49.272;11.070;2023-02-28T08:30:05;98591.06;;;0.63;70.03
16030;BME280;34770;49.272;11.070;2023-02-28T08:32:32;98604.81;;;0.84;69.94
16030;BME280;34770;49.272;11.070;2023-02-28T08:34:58;98582.50;;;0.44;69.29
16030;BME280;34770;49.272;11.070;2023-02-28T08:37:24;98598.94;;;0.39;69.09
16030;BME280;34770;49.272;11.070;2023-02-28T08:39:49;98598.69;;;0.51;68.36
16030;BME280;34770;49.272;11.070;2023-02-28T08:42:15;98592.16;;;0.62;67.59
16030;BME280;34770;49.272;11.070;2023-02-28T08:44:40;98582.63;;;1.06;67.09
16030;BME280;34770;49.272;11.070;2023-02-28T08:47:06;98587.53;;;1.40;65.80
16030;BME280;34770;49.272;11.070;2023-02-28T08:49:32;98581.50;;;1.49;65.61
16030;BME280;34770;49.272;11.070;2023-02-28T08:51:58;98580.09;;;1.77;65.37
16030;BME280;34770;49.272;11.070;2023-02-28T08:54:24;98574.00;;;1.96;63.30
16030;BME280;34770;49.272;11.070;2023-02-28T08:56:49;98573.44;;;1.99;62.75
16030;BME280;34770;49.272;11.070;2023-02-28T08:59:18;98585.50;;;2.08;61.35
16030;BME280;34770;49.272;11.070;2023-02-28T09:01:43;98578.53;;;2.31;60.92
16030;BME280;34770;49.272;11.070;2023-02-28T09:04:09;98574.16;;;2.80;60.26
16030;BME280;34770;49.272;11.070;2023-02-28T09:06:36;98590.50;;;3.41;58.96
16030;BME280;34770;49.272;11.070;2023-02-28T09:09:02;98583.28;;;3.74;57.90
16030;BME280;34770;49.272;11.070;2023-02-28T09:11:29;98570.75;;;4.11;55.19
16030;BME280;34770;49.272;11.070;2023-02-28T09:13:55;98579.97;;;3.72;55.54
16030;BME280;34770;49.272;11.070;2023-02-28T09:16:21;98563.28;;;3.93;54.80
16030;BME280;34770;49.272;11.070;2023-02-28T09:18:46;98579.13;;;4.25;54.09
16030;BME280;34770;49.272;11.070;2023-02-28T09:21:15;98558.19;;;4.87;52.97
16030;BME280;34770;49.272;11.070;2023-02-28T09:23:42;98585.25;;;5.04;52.75
16030;BME280;34770;49.272;11.070;2023-02-28T09:26:13;98584.44;;;5.03;52.03
16030;BME280;34770;49.272;11.070;2023-02-28T09:28:39;98576.13;;;5.22;51.20
16030;BME280;34770;49.272;11.070;2023-02-28T09:31:05;98572.41;;;5.13;51.69
16030;BME280;34770;49.272;11.070;2023-02-28T09:33:30;98582.13;;;5.90;50.17
16030;BME280;34770;49.272;11.070;2023-02-28T09:36:01;98579.41;;;6.97;47.86
16030;BME280;34770;49.272;11.070;2023-02-28T09:38:27;98572.00;;;6.69;46.84
16030;BME280;34770;49.272;11.070;2023-02-28T09:41:00;98578.53;;;5.90;47.95
16030;BME280;34770;49.272;11.070;2023-02-28T09:43:29;98571.31;;;6.08;48.06
16030;BME280;34770;49.272;11.070;2023-02-28T09:46:08;98578.78;;;6.63;47.21
16030;BME280;34770;49.272;11.070;2023-02-28T09:48:41;98581.03;;;6.47;47.23
16030;BME280;34770;49.272;11.070;2023-02-28T09:53:56;98577.50;;;6.83;45.41
16030;BME280;34770;49.272;11.070;2023-02-28T09:56:27;98585.53;;;5.21;48.22
16030;BME280;34770;49.272;11.070;2023-02-28T09:59:13;98584.06;;;4.28;51.13
16030;BME280;34770;49.272;11.070;2023-02-28T10:02:24;98582.47;;;5.04;48.59
16030;BME280;34770;49.272;11.070;2023-02-28T10:05:12;98578.59;;;4.86;48.88
16030;BME280;34770;49.272;11.070;2023-02-28T10:10:49;98567.31;;;5.53;48.21
16030;BME280;34770;49.272;11.070;2023-02-28T10:13:33;98563.78;;;5.67;49.01
16030;BME280;34770;49.272;11.070;2023-02-28T10:16:06;98543.16;;;6.06;49.28
16030;BME280;34770;49.272;11.070;2023-02-28T10:19:05;98572.22;;;5.42;47.38
16030;BME280;34770;49.272;11.070;2023-02-28T10:21:57;98578.75;;;4.94;48.13
16030;BME280;34770;49.272;11.070;2023-02-28T10:24:45;98575.88;;;5.38;48.05
16030;BME280;34770;49.272;11.070;2023-02-28T10:27:17;98569.41;;;5.29;48.85
16030;BME280;34770;49.272;11.070;2023-02-28T10:29:54;98569.47;;;6.03;47.84
16030;BME280;34770;49.272;11.070;2023-02-28T10:32:24;98577.34;;;5.49;47.68
16030;BME280;34770;49.272;11.070;2023-02-28T10:35:07;98567.75;;;6.07;49.03
16030;BME280;34770;49.272;11.070;2023-02-28T10:37:43;98561.69;;;6.05;48.11
16030;BME280;34770;49.272;11.070;2023-02-28T10:43:00;98569.34;;;6.36;47.33
16030;BME280;34770;49.272;11.070;2023-02-28T10:45:28;98574.50;;;6.15;47.72
16030;BME280;34770;49.272;11.070;2023-02-28T10:48:01;98566.53;;;6.14;47.14
16030;BME280;34770;49.272;11.070;2023-02-28T10:50:43;98582.41;;;4.71;49.45
16030;BME280;34770;49.272;11.070;2023-02-28T10:56:09;98573.97;;;5.00;48.66
16030;BME280;34770;49.272;11.070;2023-02-28T10:58:46;98570.88;;;5.40;49.72
16030;BME280;34770;49.272;11.070;2023-02-28T11:04:02;98571.69;;;5.40;49.19
16030;BME280;34770;49.272;11.070;2023-02-28T11:06:33;98565.25;;;5.12;48.52
16030;BME280;34770;49.272;11.070;2023-02-28T11:09:02;98576.97;;;4.85;49.59
16030;BME280;34770;49.272;11.070;2023-02-28T11:11:29;98583.53;;;4.70;49.88
16030;BME280;34770;49.272;11.070;2023-02-28T11:14:05;98582.88;;;4.97;49.71
16030;BME280;34770;49.272;11.070;2023-02-28T11:16:40;98569.94;;;5.11;48.67
16030;BME280;34770;49.272;11.070;2023-02-28T11:19:17;98574.19;;;5.56;48.53
16030;BME280;34770;49.272;11.070;2023-02-28T11:21:51;98550.97;;;6.04;47.14
16030;BME280;34770;49.272;11.070;2023-02-28T11:24:36;98571.81;;;6.66;46.08
16030;BME280;34770;49.272;11.070;2023-02-28T11:27:02;98542.22;;;6.52;44.85
16030;BME280;34770;49.272;11.070;2023-02-28T11:29:32;98559.91;;;6.65;45.84
16030;BME280;34770;49.272;11.070;2023-02-28T11:32:15;98569.34;;;5.81;47.09
16030;BME280;34770;49.272;11.070;2023-02-28T11:34:43;98557.19;;;6.37;47.97
16030;BME280;34770;49.272;11.070;2023-02-28T11:37:20;98567.91;;;6.67;45.61
16030;BME280;34770;49.272;11.070;2023-02-28T11:39:46;98547.25;;;6.87;46.22
16030;BME280;34770;49.272;11.070;2023-02-28T11:47:38;98557.22;;;7.11;45.44
16030;BME280;34770;49.272;11.070;2023-02-28T11:55:45;98546.47;;;7.63;43.51
16030;BME280;34770;49.272;11.070;2023-02-28T12:10:06;98551.25;;;8.52;42.95
16030;BME280;34770;49.272;11.070;2023-02-28T12:24:14;98549.00;;;9.33;41.55
16030;BME280;34770;49.272;11.070;2023-02-28T12:26:44;98534.81;;;9.08;41.09
16030;BME280;34770;49.272;11.070;2023-02-28T12:29:24;98540.56;;;8.28;41.96
16030;BME280;34770;49.272;11.070;2023-02-28T12:34:39;98534.38;;;8.31;41.54
16030;BME280;34770;49.272;11.070;2023-02-28T12:37:14;98538.22;;;8.61;41.40
16030;BME280;34770;49.272;11.070;2023-02-28T12:39:45;98539.69;;;8.59;41.89
16030;BME280;34770;49.272;11.070;2023-02-28T12:42:30;98531.69;;;8.08;41.26
16030;BME280;34770;49.272;11.070;2023-02-28T12:47:50;98514.25;;;8.74;41.60
16030;BME280;34770;49.272;11.070;2023-02-28T12:50:17;98534.59;;;8.52;41.62
16030;BME280;34770;49.272;11.070;2023-02-28T12:58:05;98519.47;;;8.76;40.44
16030;BME280;34770;49.272;11.070;2023-02-28T13:00:37;98500.88;;;9.68;40.16
16030;BME280;34770;49.272;11.070;2023-02-28T13:06:08;98526.31;;;9.14;40.98
16030;BME280;34770;49.272;11.070;2023-02-28T13:11:49;98521.81;;;8.42;42.67
16030;BME280;34770;49.272;11.070;2023-02-28T13:14:26;98516.19;;;8.65;42.64
16030;BME280;34770;49.272;11.070;2023-02-28T13:16:57;98531.06;;;8.11;42.94
16030;BME280;34770;49.272;11.070;2023-02-28T13:19:26;98528.19;;;7.94;42.41
16030;BME280;34770;49.272;11.070;2023-02-28T13:21:52;98528.47;;;8.24;42.75
16030;BME280;34770;49.272;11.070;2023-02-28T13:29:37;98531.78;;;7.31;43.10
16030;BME280;34770;49.272;11.070;2023-02-28T13:35:12;98524.84;;;8.72;42.62
16030;BME280;34770;49.272;11.070;2023-02-28T14:49:47;98495.88;;;11.02;36.88
16030;BME280;34770;49.272;11.070;2023-02-28T14:52:19;98496.47;;;11.41;36.24
16030;BME280;34770;49.272;11.070;2023-02-28T14:57:35;98470.28;;;10.66;37.13
16030;BME280;34770;49.272;11.070;2023-02-28T15:00:13;98503.31;;;10.68;37.44
16030;BME280;34770;49.272;11.070;2023-02-28T15:02:40;98497.03;;;10.80;37.41
16030;BME280;34770;49.272;11.070;2023-02-28T15:07:35;98486.16;;;10.87;37.37
16030;BME280;34770;49.272;11.070;2023-02-28T15:12:58;98502.59;;;11.34;36.12
16030;BME280;34770;49.272;11.070;2023-02-28T15:17:56;98501.34;;;12.52;34.82
16030;BME280;34770;49.272;11.070;2023-02-28T15:20:24;98500.44;;;12.48;34.83
16030;BME280;34770;49.272;11.070;2023-02-28T15:22:52;98493.75;;;12.77;34.97
16030;BME280;34770;49.272;11.070;2023-02-28T15:25:21;98500.91;;;12.50;34.75
16030;BME280;34770;49.272;11.070;2023-02-28T15:27:53;98495.47;;;12.41;35.37
16030;BME280;34770;49.272;11.070;2023-02-28T15:30:25;98498.38;;;11.49;35.00
16030;BME280;34770;49.272;11.070;2023-02-28T15:33:22;98479.44;;;12.79;34.25
16030;BME280;34770;49.272;11.070;2023-02-28T15:35:49;98504.09;;;12.89;33.97
16030;BME280;34770;49.272;11.070;2023-02-28T15:38:21;98501.28;;;12.11;35.09
16030;BME280;34770;49.272;11.070;2023-02-28T15:40:54;98505.00;;;13.63;34.30
16030;BME280;34770;49.272;11.070;2023-02-28T15:43:27;98511.09;;;12.83;34.20
16030;BME280;34770;49.272;11.070;2023-02-28T15:46:06;98501.72;;;13.04;33.61
16030;BME280;34770;49.272;11.070;2023-02-28T15:48:36;98491.25;;;11.06;36.54
16030;BME280;34770;49.272;11.070;2023-02-28T15:51:07;98503.84;;;9.63;38.81
16030;BME280;34770;49.272;11.070;2023-02-28T15:53:58;98498.25;;;8.98;40.41
16030;BME280;34770;49.272;11.070;2023-02-28T15:56:31;98509.03;;;7.12;43.19
16030;BME280;34770;49.272;11.070;2023-02-28T15:59:02;98518.88;;;5.89;46.37
16030;BME280;34770;49.272;11.070;2023-02-28T16:01:30;98508.38;;;5.44;46.98
16030;BME280;34770;49.272;11.070;2023-02-28T16:04:02;98521.53;;;5.19;48.69
16030;BME280;34770;49.272;11.070;2023-02-28T16:06:32;98526.41;;;5.08;48.57
16030;BME280;34770;49.272;11.070;2023-02-28T16:08:58;98529.63;;;4.97;49.36